sensor_id;sensor_type;location;lat;lon;timestamp;temperature;humidity
18950;DHT22;9608;49.288;8.130;2022-09-30T00:01:51;8.90;99.90
18950;DHT22;9608;49.288;8.130;2022-09-30T00:04:20;9.00;99.90
18950;DHT22;9608;49.288;8.130;2022-09-30T00:06:48;9.00;99.90
18950;DHT22;9608;49.288;8.130;2022-09-30T00:09:16;9.00;99.90
18950;DHT22;9608;49.288;8.130;2022-09-30T00:11:43;9.10;99.90
18950;DHT22;9608;49.288;8.130;2022-09-30T00:14:15;9.10;99.90
18950;DHT22;9608;49.288;8.130;2022-09-30T00:16:42;9.20;99.90
18950;DHT22;9608;49.288;8.130;2022-09-30T00:19:09;9.20;99.90
18950;DHT22;9608;49.288;8.130;2022-09-30T00:21:36;9.30;99.90
18950;DHT22;9608;49.288;8.130;2022-09-30T00:24:04;9.30;99.90
18950;DHT22;9608;49.288;8.130;2022-09-30T00:26:32;9.30;99.90
18950;DHT22;9608;49.288;8.130;2022-09-30T00:28:59;9.40;99.90
18950;DHT22;9608;49.288;8.130;2022-09-30T00:31:30;9.40;99.90
18950;DHT22;9608;49.288;8.130;2022-09-30T00:33:58;9.40;99.90
18950;DHT22;9608;49.288;8.130;2022-09-30T00:36:38;9.50;99.90
18950;DHT22;9608;49.288;8.130;2022-09-30T00:39:08;9.50;99.90
18950;DHT22;9608;49.288;8.130;2022-09-30T00:41:35;9.50;99.90
18950;DHT22;9608;49.288;8.130;2022-09-30T00:47:05;9.60;99.90
18950;DHT22;9608;49.288;8.130;2022-09-30T00:49:36;9.60;99.90
18950;DHT22;9608;49.288;8.130;2022-09-30T00:52:03;9.60;99.90
18950;DHT22;9608;49.288;8.130;2022-09-30T00:54:30;9.60;99.90
18950;DHT22;9608;49.288;8.130;2022-09-30T00:57:01;9.70;99.90
18950;DHT22;9608;49.288;8.130;2022-09-30T00:59:30;9.70;99.90
18950;DHT22;9608;49.288;8.130;2022-09-30T01:01:58;9.70;99.90
18950;DHT22;9608;49.288;8.130;2022-09-30T01:04:29;9.70;99.90
18950;DHT22;9608;49.288;8.130;2022-09-30T01:06:58;9.70;99.90
18950;DHT22;9608;49.288;8.130;2022-09-30T01:09:26;9.70;99.90
18950;DHT22;9608;49.288;8.130;2022-09-30T01:11:52;9.70;99.90
18950;DHT22;9608;49.288;8.130;2022-09-30T01:14:22;9.80;99.90
18950;DHT22;9608;49.288;8.130;2022-09-30T01:16:57;9.70;99.90
18950;DHT22;9608;49.288;8.130;2022-09-30T01:22:30;9.80;99.90
18950;DHT22;9608;49.288;8.130;2022-09-30T01:25:17;9.80;99.90
18950;DHT22;9608;49.288;8.130;2022-09-30T01:28:19;9.80;99.90
18950;DHT22;9608;49.288;8.130;2022-09-30T01:31:06;9.80;99.90
18950;DHT22;9608;49.288;8.130;2022-09-30T01:33:45;9.80;99.90
18950;DHT22;9608;49.288;8.130;2022-09-30T01:36:32;9.80;99.90
18950;DHT22;9608;49.288;8.130;2022-09-30T01:39:10;9.80;99.90
18950;DHT22;9608;49.288;8.130;2022-09-30T01:41:43;9.70;99.90
18950;DHT22;9608;49.288;8.130;2022-09-30T01:44:18;9.60;99.90
18950;DHT22;9608;49.288;8.130;2022-09-30T01:46:50;9.60;99.90
18950;DHT22;9608;49.288;8.130;2022-09-30T01:49:25;9.60;99.90
18950;DHT22;9608;49.288;8.130;2022-09-30T01:51:56;9.50;99.90
18950;DHT22;9608;49.288;8.130;2022-09-30T01:54:29;9.50;99.90
18950;DHT22;9608;49.288;8.130;2022-09-30T01:57:02;9.50;99.90
18950;DHT22;9608;49.288;8.130;2022-09-30T01:59:33;9.40;99.90
18950;DHT22;9608;49.288;8.130;2022-09-30T02:02:05;9.30;99.90
18950;DHT22;9608;49.288;8.130;2022-09-30T02:04:35;9.20;99.90
18950;DHT22;9608;49.288;8.130;2022-09-30T02:07:08;9.10;99.90
18950;DHT22;9608;49.288;8.130;2022-09-30T02:09:40;9.10;99.90
18950;DHT22;9608;49.288;8.130;2022-09-30T02:12:11;8.90;99.90
18950;DHT22;9608;49.288;8.130;2022-09-30T02:14:41;8.70;99.90
18950;DHT22;9608;49.288;8.130;2022-09-30T02:17:14;8.60;99.90
18950;DHT22;9608;49.288;8.130;2022-09-30T02:19:45;8.50;99.90
18950;DHT22;9608;49.288;8.130;2022-09-30T02:22:15;8.40;99.90
18950;DHT22;9608;49.288;8.130;2022-09-30T02:24:43;8.20;99.90
18950;DHT22;9608;49.288;8.130;2022-09-30T02:27:15;8.10;99.90
18950;DHT22;9608;49.288;8.130;2022-09-30T02:29:46;7.90;99.90
18950;DHT22;9608;49.288;8.130;2022-09-30T02:32:21;7.80;99.90
18950;DHT22;9608;49.288;8.130;2022-09-30T02:34:51;7.80;99.90
18950;DHT22;9608;49.288;8.130;2022-09-30T02:37:23;7.90;99.90
18950;DHT22;9608;49.288;8.130;2022-09-30T02:39:53;8.00;99.90
18950;DHT22;9608;49.288;8.130;2022-09-30T02:42:23;8.00;99.90
18950;DHT22;9608;49.288;8.130;2022-09-30T02:44:54;7.90;99.90
18950;DHT22;9608;49.288;8.130;2022-09-30T02:47:29;7.90;99.90
18950;DHT22;9608;49.288;8.130;2022-09-30T02:50:02;7.80;99.90
18950;DHT22;9608;49.288;8.130;2022-09-30T02:52:41;7.80;99.90
18950;DHT22;9608;49.288;8.130;2022-09-30T02:55:17;7.70;99.90
18950;DHT22;9608;49.288;8.130;2022-09-30T02:57:55;7.70;99.90
18950;DHT22;9608;49.288;8.130;2022-09-30T03:00:23;7.70;99.90
18950;DHT22;9608;49.288;8.130;2022-09-30T03:02:58;7.60;99.90
18950;DHT22;9608;49.288;8.130;2022-09-30T03:05:27;7.50;99.90
18950;DHT22;9608;49.288;8.130;2022-09-30T03:07:55;7.50;99.90
18950;DHT22;9608;49.288;8.130;2022-09-30T03:10:22;7.60;99.90
18950;DHT22;9608;49.288;8.130;2022-09-30T03:13:02;7.70;99.90
18950;DHT22;9608;49.288;8.130;2022-09-30T03:15:47;7.70;99.90
18950;DHT22;9608;49.288;8.130;2022-09-30T03:18:36;7.70;99.90
18950;DHT22;9608;49.288;8.130;2022-09-30T03:21:14;7.70;99.90
18950;DHT22;9608;49.288;8.130;2022-09-30T03:24:02;7.70;99.90
18950;DHT22;9608;49.288;8.130;2022-09-30T03:26:38;7.70;99.90
18950;DHT22;9608;49.288;8.130;2022-09-30T03:29:11;7.70;99.90
18950;DHT22;9608;49.288;8.130;2022-09-30T03:31:56;7.70;99.90
18950;DHT22;9608;49.288;8.130;2022-09-30T03:34:30;7.70;99.90
18950;DHT22;9608;49.288;8.130;2022-09-30T03:37:08;7.70;99.90
18950;DHT22;9608;49.288;8.130;2022-09-30T03:39:52;7.80;99.90
18950;DHT22;9608;49.288;8.130;2022-09-30T03:42:24;7.80;99.90
18950;DHT22;9608;49.288;8.130;2022-09-30T03:45:02;7.80;99.90
18950;DHT22;9608;49.288;8.130;2022-09-30T03:47:33;7.90;99.90
18950;DHT22;9608;49.288;8.130;2022-09-30T03:50:05;7.90;99.90
18950;DHT22;9608;49.288;8.130;2022-09-30T03:52:33;7.90;99.90
18950;DHT22;9608;49.288;8.130;2022-09-30T03:55:03;7.80;99.90
18950;DHT22;9608;49.288;8.130;2022-09-30T03:57:32;7.70;99.90
18950;DHT22;9608;49.288;8.130;2022-09-30T03:59:59;7.60;99.90
18950;DHT22;9608;49.288;8.130;2022-09-30T04:02:26;7.60;99.90
18950;DHT22;9608;49.288;8.130;2022-09-30T04:04:53;7.70;99.90
18950;DHT22;9608;49.288;8.130;2022-09-30T04:07:22;7.70;99.90
18950;DHT22;9608;49.288;8.130;2022-09-30T04:09:48;7.70;99.90
18950;DHT22;9608;49.288;8.130;2022-09-30T04:12:15;7.60;99.90
18950;DHT22;9608;49.288;8.130;2022-09-30T04:14:42;7.40;99.90
18950;DHT22;9608;49.288;8.130;2022-09-30T04:17:09;7.30;99.90
18950;DHT22;9608;49.288;8.130;2022-09-30T04:19:36;7.20;99.90
18950;DHT22;9608;49.288;8.130;2022-09-30T04:22:05;7.20;99.90
18950;DHT22;9608;49.288;8.130;2022-09-30T04:24:33;7.10;99.90
18950;DHT22;9608;49.288;8.130;2022-09-30T04:27:00;7.20;99.90
18950;DHT22;9608;49.288;8.130;2022-09-30T04:29:27;7.20;99.90
18950;DHT22;9608;49.288;8.130;2022-09-30T04:31:54;7.20;99.90
18950;DHT22;9608;49.288;8.130;2022-09-30T04:34:20;7.10;99.90
18950;DHT22;9608;49.288;8.130;2022-09-30T04:36:47;7.10;99.90
18950;DHT22;9608;49.288;8.130;2022-09-30T04:39:14;7.10;99.90
18950;DHT22;9608;49.288;8.130;2022-09-30T04:41:42;7.10;99.90
18950;DHT22;9608;49.288;8.130;2022-09-30T04:44:08;7.10;99.90
18950;DHT22;9608;49.288;8.130;2022-09-30T04:46:35;7.10;99.90
18950;DHT22;9608;49.288;8.130;2022-09-30T04:49:03;7.10;99.90
18950;DHT22;9608;49.288;8.130;2022-09-30T04:51:29;7.20;99.90
18950;DHT22;9608;49.288;8.130;2022-09-30T04:53:56;7.20;99.90
18950;DHT22;9608;49.288;8.130;2022-09-30T04:56:23;7.30;99.90
18950;DHT22;9608;49.288;8.130;2022-09-30T04:58:52;7.30;99.90
18950;DHT22;9608;49.288;8.130;2022-09-30T05:01:19;7.40;99.90
18950;DHT22;9608;49.288;8.130;2022-09-30T05:03:46;7.50;99.90
18950;DHT22;9608;49.288;8.130;2022-09-30T05:06:13;7.50;99.90
18950;DHT22;9608;49.288;8.130;2022-09-30T05:08:40;7.40;99.90
18950;DHT22;9608;49.288;8.130;2022-09-30T05:11:10;7.40;99.90
18950;DHT22;9608;49.288;8.130;2022-09-30T05:13:39;7.40;99.90
18950;DHT22;9608;49.288;8.130;2022-09-30T05:16:08;7.40;99.90
18950;DHT22;9608;49.288;8.130;2022-09-30T05:18:36;7.40;99.90
18950;DHT22;9608;49.288;8.130;2022-09-30T05:21:04;7.40;99.90
18950;DHT22;9608;49.288;8.130;2022-09-30T05:23:31;7.30;99.90
18950;DHT22;9608;49.288;8.130;2022-09-30T05:25:58;7.30;99.90
18950;DHT22;9608;49.288;8.130;2022-09-30T05:28:25;7.20;99.90
18950;DHT22;9608;49.288;8.130;2022-09-30T05:30:55;7.20;99.90
18950;DHT22;9608;49.288;8.130;2022-09-30T05:33:23;7.10;99.90
18950;DHT22;9608;49.288;8.130;2022-09-30T05:35:50;7.00;99.90
18950;DHT22;9608;49.288;8.130;2022-09-30T05:38:17;7.10;99.90
18950;DHT22;9608;49.288;8.130;2022-09-30T05:40:44;7.00;99.90
18950;DHT22;9608;49.288;8.130;2022-09-30T05:43:10;7.10;99.90
18950;DHT22;9608;49.288;8.130;2022-09-30T05:45:37;7.30;99.90
18950;DHT22;9608;49.288;8.130;2022-09-30T05:48:04;7.40;99.90
18950;DHT22;9608;49.288;8.130;2022-09-30T05:50:33;7.50;99.90
18950;DHT22;9608;49.288;8.130;2022-09-30T05:53:00;7.70;99.90
18950;DHT22;9608;49.288;8.130;2022-09-30T05:55:26;7.80;99.90
18950;DHT22;9608;49.288;8.130;2022-09-30T05:57:54;8.00;99.90
18950;DHT22;9608;49.288;8.130;2022-09-30T06:00:21;8.10;99.90
18950;DHT22;9608;49.288;8.130;2022-09-30T06:02:50;8.30;99.90
18950;DHT22;9608;49.288;8.130;2022-09-30T06:05:18;8.40;99.90
18950;DHT22;9608;49.288;8.130;2022-09-30T06:07:53;8.50;99.90
18950;DHT22;9608;49.288;8.130;2022-09-30T06:10:19;8.60;99.90
18950;DHT22;9608;49.288;8.130;2022-09-30T06:12:48;8.70;99.90
18950;DHT22;9608;49.288;8.130;2022-09-30T06:15:16;8.80;99.90
18950;DHT22;9608;49.288;8.130;2022-09-30T06:17:43;8.90;99.90
18950;DHT22;9608;49.288;8.130;2022-09-30T06:20:11;9.00;99.90
18950;DHT22;9608;49.288;8.130;2022-09-30T06:22:38;9.10;99.90
18950;DHT22;9608;49.288;8.130;2022-09-30T06:25:10;9.20;99.90
18950;DHT22;9608;49.288;8.130;2022-09-30T06:27:37;9.10;99.90
18950;DHT22;9608;49.288;8.130;2022-09-30T06:30:04;9.10;99.90
18950;DHT22;9608;49.288;8.130;2022-09-30T06:32:32;9.20;99.90
18950;DHT22;9608;49.288;8.130;2022-09-30T06:34:58;9.20;99.90
18950;DHT22;9608;49.288;8.130;2022-09-30T06:37:27;9.30;99.90
18950;DHT22;9608;49.288;8.130;2022-09-30T06:39:54;9.40;99.90
18950;DHT22;9608;49.288;8.130;2022-09-30T06:42:22;9.50;99.90
18950;DHT22;9608;49.288;8.130;2022-09-30T06:44:49;9.80;99.90
18950;DHT22;9608;49.288;8.130;2022-09-30T06:47:16;9.90;99.90
18950;DHT22;9608;49.288;8.130;2022-09-30T06:49:43;9.60;99.90
18950;DHT22;9608;49.288;8.130;2022-09-30T06:52:11;9.60;99.90
18950;DHT22;9608;49.288;8.130;2022-09-30T06:54:38;9.70;99.90
18950;DHT22;9608;49.288;8.130;2022-09-30T06:57:12;10.00;99.90
18950;DHT22;9608;49.288;8.130;2022-09-30T06:59:40;10.20;99.90
18950;DHT22;9608;49.288;8.130;2022-09-30T07:02:08;10.40;99.90
18950;DHT22;9608;49.288;8.130;2022-09-30T07:04:35;10.60;99.90
18950;DHT22;9608;49.288;8.130;2022-09-30T07:07:02;10.70;99.90
18950;DHT22;9608;49.288;8.130;2022-09-30T07:09:29;10.60;99.90
18950;DHT22;9608;49.288;8.130;2022-09-30T07:11:56;10.70;99.90
18950;DHT22;9608;49.288;8.130;2022-09-30T07:14:25;10.70;99.90
18950;DHT22;9608;49.288;8.130;2022-09-30T07:16:54;10.80;99.90
18950;DHT22;9608;49.288;8.130;2022-09-30T07:19:20;10.90;99.90
18950;DHT22;9608;49.288;8.130;2022-09-30T07:21:48;10.60;99.90
18950;DHT22;9608;49.288;8.130;2022-09-30T07:24:15;10.50;99.90
18950;DHT22;9608;49.288;8.130;2022-09-30T07:26:43;10.40;99.90
18950;DHT22;9608;49.288;8.130;2022-09-30T07:29:11;10.50;99.90
18950;DHT22;9608;49.288;8.130;2022-09-30T07:31:38;10.40;99.90
18950;DHT22;9608;49.288;8.130;2022-09-30T07:34:08;10.50;99.90
18950;DHT22;9608;49.288;8.130;2022-09-30T07:36:38;10.50;99.90
18950;DHT22;9608;49.288;8.130;2022-09-30T07:39:08;10.60;99.90
18950;DHT22;9608;49.288;8.130;2022-09-30T07:41:37;10.60;99.90
18950;DHT22;9608;49.288;8.130;2022-09-30T07:44:07;10.80;99.90
18950;DHT22;9608;49.288;8.130;2022-09-30T07:46:36;10.80;99.90
18950;DHT22;9608;49.288;8.130;2022-09-30T07:49:11;10.60;99.90
18950;DHT22;9608;49.288;8.130;2022-09-30T07:51:40;10.60;99.90
18950;DHT22;9608;49.288;8.130;2022-09-30T07:54:15;10.50;99.90
18950;DHT22;9608;49.288;8.130;2022-09-30T07:56:44;10.50;99.90
18950;DHT22;9608;49.288;8.130;2022-09-30T07:59:11;10.40;99.90
18950;DHT22;9608;49.288;8.130;2022-09-30T08:01:38;10.30;99.90
18950;DHT22;9608;49.288;8.130;2022-09-30T08:04:08;10.20;99.90
18950;DHT22;9608;49.288;8.130;2022-09-30T08:06:38;10.20;99.90
18950;DHT22;9608;49.288;8.130;2022-09-30T08:09:07;10.20;99.90
18950;DHT22;9608;49.288;8.130;2022-09-30T08:11:34;10.00;99.90
18950;DHT22;9608;49.288;8.130;2022-09-30T08:14:02;10.00;99.90
18950;DHT22;9608;49.288;8.130;2022-09-30T08:16:29;10.00;99.90
18950;DHT22;9608;49.288;8.130;2022-09-30T08:19:00;10.20;99.90
18950;DHT22;9608;49.288;8.130;2022-09-30T08:21:28;10.70;99.90
18950;DHT22;9608;49.288;8.130;2022-09-30T08:23:55;10.90;99.90
18950;DHT22;9608;49.288;8.130;2022-09-30T08:26:22;10.70;99.90
18950;DHT22;9608;49.288;8.130;2022-09-30T08:28:50;10.70;99.90
18950;DHT22;9608;49.288;8.130;2022-09-30T08:31:19;10.80;99.90
18950;DHT22;9608;49.288;8.130;2022-09-30T08:33:46;10.80;99.90
18950;DHT22;9608;49.288;8.130;2022-09-30T08:36:16;10.60;99.90
18950;DHT22;9608;49.288;8.130;2022-09-30T08:38:45;10.60;99.90
18950;DHT22;9608;49.288;8.130;2022-09-30T08:41:22;10.70;99.90
18950;DHT22;9608;49.288;8.130;2022-09-30T08:44:02;10.80;99.90
18950;DHT22;9608;49.288;8.130;2022-09-30T08:46:41;10.60;99.90
18950;DHT22;9608;49.288;8.130;2022-09-30T08:49:34;10.90;99.90
18950;DHT22;9608;49.288;8.130;2022-09-30T08:52:12;11.20;99.90
18950;DHT22;9608;49.288;8.130;2022-09-30T08:54:45;11.40;99.90
18950;DHT22;9608;49.288;8.130;2022-09-30T08:57:14;11.50;99.90
18950;DHT22;9608;49.288;8.130;2022-09-30T08:59:44;11.50;99.90
18950;DHT22;9608;49.288;8.130;2022-09-30T09:02:17;11.50;99.90
18950;DHT22;9608;49.288;8.130;2022-09-30T09:04:48;11.60;99.90
18950;DHT22;9608;49.288;8.130;2022-09-30T09:07:30;12.10;99.90
18950;DHT22;9608;49.288;8.130;2022-09-30T09:10:08;12.50;99.90
18950;DHT22;9608;49.288;8.130;2022-09-30T09:12:44;12.70;99.90
18950;DHT22;9608;49.288;8.130;2022-09-30T09:15:22;12.90;99.90
18950;DHT22;9608;49.288;8.130;2022-09-30T09:18:05;13.10;99.90
18950;DHT22;9608;49.288;8.130;2022-09-30T09:20:38;13.10;99.90
18950;DHT22;9608;49.288;8.130;2022-09-30T09:23:09;13.20;99.90
18950;DHT22;9608;49.288;8.130;2022-09-30T09:25:38;13.30;99.90
18950;DHT22;9608;49.288;8.130;2022-09-30T09:28:13;13.30;99.90
18950;DHT22;9608;49.288;8.130;2022-09-30T09:30:50;13.40;99.90
18950;DHT22;9608;49.288;8.130;2022-09-30T09:33:20;13.60;99.90
18950;DHT22;9608;49.288;8.130;2022-09-30T09:35:52;13.70;99.90
18950;DHT22;9608;49.288;8.130;2022-09-30T09:38:25;13.90;99.90
18950;DHT22;9608;49.288;8.130;2022-09-30T09:41:18;14.20;99.90
18950;DHT22;9608;49.288;8.130;2022-09-30T09:43:55;14.40;99.90
18950;DHT22;9608;49.288;8.130;2022-09-30T09:46:26;14.50;99.90
18950;DHT22;9608;49.288;8.130;2022-09-30T09:49:28;14.50;99.90
18950;DHT22;9608;49.288;8.130;2022-09-30T09:55:07;14.40;99.90
18950;DHT22;9608;49.288;8.130;2022-09-30T09:57:37;14.30;99.90
18950;DHT22;9608;49.288;8.130;2022-09-30T10:00:09;14.50;99.90
18950;DHT22;9608;49.288;8.130;2022-09-30T10:02:59;14.70;99.90
18950;DHT22;9608;49.288;8.130;2022-09-30T10:05:28;14.80;99.90
18950;DHT22;9608;49.288;8.130;2022-09-30T10:08:15;15.00;99.90
18950;DHT22;9608;49.288;8.130;2022-09-30T10:10:47;14.90;99.90
18950;DHT22;9608;49.288;8.130;2022-09-30T10:13:20;15.00;99.90
18950;DHT22;9608;49.288;8.130;2022-09-30T10:15:49;15.10;99.90
18950;DHT22;9608;49.288;8.130;2022-09-30T10:18:26;15.30;99.90
18950;DHT22;9608;49.288;8.130;2022-09-30T10:20:58;15.50;99.90
18950;DHT22;9608;49.288;8.130;2022-09-30T10:23:36;15.60;99.90
18950;DHT22;9608;49.288;8.130;2022-09-30T10:26:15;15.80;99.90
18950;DHT22;9608;49.288;8.130;2022-09-30T10:28:46;15.90;99.90
18950;DHT22;9608;49.288;8.130;2022-09-30T10:31:20;16.00;99.90
18950;DHT22;9608;49.288;8.130;2022-09-30T10:33:59;16.10;99.90
18950;DHT22;9608;49.288;8.130;2022-09-30T10:36:39;16.20;99.90
18950;DHT22;9608;49.288;8.130;2022-09-30T10:39:19;16.40;99.90
18950;DHT22;9608;49.288;8.130;2022-09-30T10:42:00;16.30;99.90
18950;DHT22;9608;49.288;8.130;2022-09-30T10:44:43;16.30;99.90
18950;DHT22;9608;49.288;8.130;2022-09-30T10:47:14;16.00;99.90
18950;DHT22;9608;49.288;8.130;2022-09-30T10:49:46;16.00;99.90
18950;DHT22;9608;49.288;8.130;2022-09-30T10:52:18;16.10;99.90
18950;DHT22;9608;49.288;8.130;2022-09-30T10:54:48;16.20;99.90
18950;DHT22;9608;49.288;8.130;2022-09-30T10:57:19;16.40;99.90
18950;DHT22;9608;49.288;8.130;2022-09-30T10:59:48;16.40;99.90
18950;DHT22;9608;49.288;8.130;2022-09-30T11:02:25;16.60;99.90
18950;DHT22;9608;49.288;8.130;2022-09-30T11:05:00;16.70;99.90
18950;DHT22;9608;49.288;8.130;2022-09-30T11:07:32;16.60;99.90
18950;DHT22;9608;49.288;8.130;2022-09-30T11:10:07;16.70;99.90
18950;DHT22;9608;49.288;8.130;2022-09-30T11:12:40;16.70;99.90
18950;DHT22;9608;49.288;8.130;2022-09-30T11:15:16;16.90;99.90
18950;DHT22;9608;49.288;8.130;2022-09-30T11:17:49;17.00;99.90
18950;DHT22;9608;49.288;8.130;2022-09-30T11:20:20;17.20;99.90
18950;DHT22;9608;49.288;8.130;2022-09-30T11:22:55;17.30;99.90
18950;DHT22;9608;49.288;8.130;2022-09-30T11:25:27;17.30;99.90
18950;DHT22;9608;49.288;8.130;2022-09-30T11:28:18;17.40;99.90
18950;DHT22;9608;49.288;8.130;2022-09-30T11:30:55;17.40;99.90
18950;DHT22;9608;49.288;8.130;2022-09-30T11:33:46;17.50;99.90
18950;DHT22;9608;49.288;8.130;2022-09-30T11:36:22;17.60;99.90
18950;DHT22;9608;49.288;8.130;2022-09-30T11:39:14;17.90;99.90
18950;DHT22;9608;49.288;8.130;2022-09-30T11:41:46;17.90;99.90
18950;DHT22;9608;49.288;8.130;2022-09-30T11:44:33;17.90;99.90
18950;DHT22;9608;49.288;8.130;2022-09-30T11:47:38;18.00;99.90
18950;DHT22;9608;49.288;8.130;2022-09-30T11:53:21;17.90;99.90
18950;DHT22;9608;49.288;8.130;2022-09-30T11:56:04;18.20;99.90
18950;DHT22;9608;49.288;8.130;2022-09-30T11:58:35;18.40;99.90
18950;DHT22;9608;49.288;8.130;2022-09-30T12:01:13;18.50;99.90
18950;DHT22;9608;49.288;8.130;2022-09-30T12:03:45;18.90;99.90
18950;DHT22;9608;49.288;8.130;2022-09-30T12:06:19;19.20;99.90
18950;DHT22;9608;49.288;8.130;2022-09-30T12:08:54;19.50;99.90
18950;DHT22;9608;49.288;8.130;2022-09-30T12:11:32;19.60;99.90
18950;DHT22;9608;49.288;8.130;2022-09-30T12:14:09;19.70;99.90
18950;DHT22;9608;49.288;8.130;2022-09-30T12:16:38;19.60;99.90
18950;DHT22;9608;49.288;8.130;2022-09-30T12:19:14;19.70;99.90
18950;DHT22;9608;49.288;8.130;2022-09-30T12:21:46;19.90;99.90
18950;DHT22;9608;49.288;8.130;2022-09-30T12:24:20;20.00;99.90
18950;DHT22;9608;49.288;8.130;2022-09-30T12:26:49;20.10;99.90
18950;DHT22;9608;49.288;8.130;2022-09-30T12:29:20;20.20;99.90
18950;DHT22;9608;49.288;8.130;2022-09-30T12:35:34;19.80;99.90
18950;DHT22;9608;49.288;8.130;2022-09-30T12:38:15;19.70;99.90
18950;DHT22;9608;49.288;8.130;2022-09-30T12:41:02;19.80;99.90
18950;DHT22;9608;49.288;8.130;2022-09-30T12:43:56;19.80;99.90
18950;DHT22;9608;49.288;8.130;2022-09-30T12:46:44;19.80;99.90
18950;DHT22;9608;49.288;8.130;2022-09-30T12:49:16;19.90;99.90
18950;DHT22;9608;49.288;8.130;2022-09-30T12:51:49;20.20;99.90
18950;DHT22;9608;49.288;8.130;2022-09-30T12:54:18;20.40;99.90
18950;DHT22;9608;49.288;8.130;2022-09-30T12:56:52;20.50;99.90
18950;DHT22;9608;49.288;8.130;2022-09-30T12:59:25;20.60;99.90
18950;DHT22;9608;49.288;8.130;2022-09-30T13:01:52;20.60;99.90
18950;DHT22;9608;49.288;8.130;2022-09-30T13:04:30;20.40;99.90
18950;DHT22;9608;49.288;8.130;2022-09-30T13:07:08;20.50;99.90
18950;DHT22;9608;49.288;8.130;2022-09-30T13:09:55;20.50;99.90
18950;DHT22;9608;49.288;8.130;2022-09-30T13:12:25;20.20;99.90
18950;DHT22;9608;49.288;8.130;2022-09-30T13:21:23;20.10;99.90
18950;DHT22;9608;49.288;8.130;2022-09-30T13:23:53;20.00;99.90
18950;DHT22;9608;49.288;8.130;2022-09-30T13:26:45;20.00;99.90
18950;DHT22;9608;49.288;8.130;2022-09-30T13:29:45;20.20;99.90
18950;DHT22;9608;49.288;8.130;2022-09-30T13:32:30;20.20;99.90
18950;DHT22;9608;49.288;8.130;2022-09-30T13:34:57;20.20;99.90
18950;DHT22;9608;49.288;8.130;2022-09-30T13:37:35;20.00;99.90
18950;DHT22;9608;49.288;8.130;2022-09-30T13:40:15;19.60;99.90
18950;DHT22;9608;49.288;8.130;2022-09-30T13:42:50;19.60;99.90
18950;DHT22;9608;49.288;8.130;2022-09-30T13:45:22;19.70;99.90
18950;DHT22;9608;49.288;8.130;2022-09-30T13:48:00;19.60;99.90
18950;DHT22;9608;49.288;8.130;2022-09-30T13:50:30;19.60;99.90
18950;DHT22;9608;49.288;8.130;2022-09-30T13:53:00;19.70;99.90
18950;DHT22;9608;49.288;8.130;2022-09-30T13:55:33;19.80;99.90
18950;DHT22;9608;49.288;8.130;2022-09-30T13:58:16;19.90;99.90
18950;DHT22;9608;49.288;8.130;2022-09-30T14:00:55;19.80;99.90
18950;DHT22;9608;49.288;8.130;2022-09-30T14:03:41;20.00;99.90
18950;DHT22;9608;49.288;8.130;2022-09-30T14:06:16;19.60;99.90
18950;DHT22;9608;49.288;8.130;2022-09-30T14:09:00;19.40;99.90
18950;DHT22;9608;49.288;8.130;2022-09-30T14:15:01;19.10;99.90
18950;DHT22;9608;49.288;8.130;2022-09-30T14:17:43;18.90;99.90
18950;DHT22;9608;49.288;8.130;2022-09-30T14:20:29;19.00;99.90
18950;DHT22;9608;49.288;8.130;2022-09-30T14:23:00;19.00;99.90
18950;DHT22;9608;49.288;8.130;2022-09-30T14:25:32;18.90;99.90
18950;DHT22;9608;49.288;8.130;2022-09-30T14:28:04;19.00;99.90
18950;DHT22;9608;49.288;8.130;2022-09-30T14:30:37;19.10;99.90
18950;DHT22;9608;49.288;8.130;2022-09-30T14:33:09;19.20;99.90
18950;DHT22;9608;49.288;8.130;2022-09-30T14:35:37;19.30;99.90
18950;DHT22;9608;49.288;8.130;2022-09-30T14:38:07;19.30;99.90
18950;DHT22;9608;49.288;8.130;2022-09-30T14:40:39;19.10;99.90
18950;DHT22;9608;49.288;8.130;2022-09-30T14:43:13;18.90;99.90
18950;DHT22;9608;49.288;8.130;2022-09-30T14:45:44;18.90;99.90
18950;DHT22;9608;49.288;8.130;2022-09-30T14:48:16;19.00;99.90
18950;DHT22;9608;49.288;8.130;2022-09-30T14:50:49;18.70;99.90
18950;DHT22;9608;49.288;8.130;2022-09-30T14:53:25;18.70;99.90
18950;DHT22;9608;49.288;8.130;2022-09-30T14:55:53;18.60;99.90
18950;DHT22;9608;49.288;8.130;2022-09-30T14:58:24;18.40;99.90
18950;DHT22;9608;49.288;8.130;2022-09-30T15:01:04;18.40;99.90
18950;DHT22;9608;49.288;8.130;2022-09-30T15:03:33;18.30;99.90
18950;DHT22;9608;49.288;8.130;2022-09-30T15:06:01;18.30;99.90
18950;DHT22;9608;49.288;8.130;2022-09-30T15:08:28;18.10;99.90
18950;DHT22;9608;49.288;8.130;2022-09-30T15:10:55;18.00;99.90
18950;DHT22;9608;49.288;8.130;2022-09-30T15:13:25;17.90;99.90
18950;DHT22;9608;49.288;8.130;2022-09-30T15:15:53;17.90;99.90
18950;DHT22;9608;49.288;8.130;2022-09-30T15:18:28;17.80;99.90
18950;DHT22;9608;49.288;8.130;2022-09-30T15:20:58;17.70;99.90
18950;DHT22;9608;49.288;8.130;2022-09-30T15:23:29;17.50;99.90
18950;DHT22;9608;49.288;8.130;2022-09-30T15:25:57;17.40;99.90
18950;DHT22;9608;49.288;8.130;2022-09-30T15:28:25;17.30;99.90
18950;DHT22;9608;49.288;8.130;2022-09-30T15:30:55;17.10;99.90
18950;DHT22;9608;49.288;8.130;2022-09-30T15:33:24;16.90;99.90
18950;DHT22;9608;49.288;8.130;2022-09-30T15:36:03;16.70;99.90
18950;DHT22;9608;49.288;8.130;2022-09-30T15:38:32;16.50;99.90
18950;DHT22;9608;49.288;8.130;2022-09-30T15:41:04;16.40;99.90
18950;DHT22;9608;49.288;8.130;2022-09-30T15:43:35;16.20;99.90
18950;DHT22;9608;49.288;8.130;2022-09-30T15:48:33;16.00;99.90
18950;DHT22;9608;49.288;8.130;2022-09-30T15:51:23;15.90;99.90
18950;DHT22;9608;49.288;8.130;2022-09-30T15:53:50;15.90;99.90
18950;DHT22;9608;49.288;8.130;2022-09-30T15:56:28;15.90;99.90
18950;DHT22;9608;49.288;8.130;2022-09-30T15:58:58;15.80;99.90
18950;DHT22;9608;49.288;8.130;2022-09-30T16:01:27;15.80;99.90
18950;DHT22;9608;49.288;8.130;2022-09-30T16:03:59;15.80;99.90
18950;DHT22;9608;49.288;8.130;2022-09-30T16:06:30;15.80;99.90
18950;DHT22;9608;49.288;8.130;2022-09-30T16:09:03;15.80;99.90
18950;DHT22;9608;49.288;8.130;2022-09-30T16:11:34;15.70;99.90
18950;DHT22;9608;49.288;8.130;2022-09-30T16:14:04;15.60;99.90
18950;DHT22;9608;49.288;8.130;2022-09-30T16:16:34;15.70;99.90
18950;DHT22;9608;49.288;8.130;2022-09-30T16:19:02;15.50;99.90
18950;DHT22;9608;49.288;8.130;2022-09-30T16:21:40;15.60;99.90
18950;DHT22;9608;49.288;8.130;2022-09-30T16:24:42;15.50;99.90
18950;DHT22;9608;49.288;8.130;2022-09-30T16:27:28;15.40;99.90
18950;DHT22;9608;49.288;8.130;2022-09-30T16:29:56;15.10;99.90
18950;DHT22;9608;49.288;8.130;2022-09-30T16:32:28;14.90;99.90
18950;DHT22;9608;49.288;8.130;2022-09-30T16:34:56;14.70;99.90
18950;DHT22;9608;49.288;8.130;2022-09-30T16:37:24;14.40;99.90
18950;DHT22;9608;49.288;8.130;2022-09-30T16:39:51;14.20;99.90
18950;DHT22;9608;49.288;8.130;2022-09-30T16:42:18;14.10;99.90
18950;DHT22;9608;49.288;8.130;2022-09-30T16:44:45;13.90;99.90
18950;DHT22;9608;49.288;8.130;2022-09-30T16:47:13;13.80;99.90
18950;DHT22;9608;49.288;8.130;2022-09-30T16:49:40;13.80;99.90
18950;DHT22;9608;49.288;8.130;2022-09-30T16:52:08;13.80;99.90
18950;DHT22;9608;49.288;8.130;2022-09-30T16:54:36;13.80;99.90